Antler, North Dakota
Current Conditions -  °F | °C
As of 3:58 PM on Sunday 23 Nov 2014 (Local Time) from KMIB Reporting Station
Light Snow Light Snow  
Wind Chill: -1°   Ceiling: 1300
Heat Index: 17°   Visibility: 10mi
Dew Point: 10°   Wind: 23mph
Humidity: 75%   Direction: 320°NW
Pressure: 29.65"   Gusts: 28mph
Location:  48.97°N, 101.28°W
Report Text: KMIB 232158Z AUTO 32020G24KT 10SM -SN OVC013 M08/M12 A2965 RMK AO2 PK WND 33027/04 UPE2154SNB2154 SLP067 P0000 T10831121
Loading
Personal Weather Stations






























Interactive Weather Map New forecast layout! Learn more

10-Day Weather Forecast

Advertisements
Track Severe Weather on mobile